sensor_id;sensor_type;location;lat;lon;timestamp;P1;durP1;ratioP1;P2;durP2;ratioP2
72273;SDS011;60208;48.692;8.948;2023-06-19T00:01:42;10.25;;;6.68;;
72273;SDS011;60208;48.692;8.948;2023-06-19T00:04:07;7.57;;;6.88;;
72273;SDS011;60208;48.692;8.948;2023-06-19T00:06:34;12.32;;;7.28;;
72273;SDS011;60208;48.692;8.948;2023-06-19T00:08:59;10.00;;;7.38;;
72273;SDS011;60208;48.692;8.948;2023-06-19T00:11:25;7.80;;;7.05;;
72273;SDS011;60208;48.692;8.948;2023-06-19T00:13:50;8.25;;;7.40;;
72273;SDS011;60208;48.692;8.948;2023-06-19T00:16:16;7.75;;;6.95;;
72273;SDS011;60208;48.692;8.948;2023-06-19T00:18:41;8.45;;;6.90;;
72273;SDS011;60208;48.692;8.948;2023-06-19T00:21:07;7.45;;;6.75;;
72273;SDS011;60208;48.692;8.948;2023-06-19T00:23:33;8.00;;;7.20;;
72273;SDS011;60208;48.692;8.948;2023-06-19T00:25:59;8.60;;;6.70;;
72273;SDS011;60208;48.692;8.948;2023-06-19T00:28:28;8.35;;;7.18;;
72273;SDS011;60208;48.692;8.948;2023-06-19T00:30:53;8.27;;;6.90;;
72273;SDS011;60208;48.692;8.948;2023-06-19T00:33:19;7.93;;;7.13;;
72273;SDS011;60208;48.692;8.948;2023-06-19T00:35:44;7.80;;;7.10;;
72273;SDS011;60208;48.692;8.948;2023-06-19T00:38:10;10.68;;;7.20;;
72273;SDS011;60208;48.692;8.948;2023-06-19T00:40:35;7.70;;;6.82;;
72273;SDS011;60208;48.692;8.948;2023-06-19T00:43:01;10.68;;;7.38;;
72273;SDS011;60208;48.692;8.948;2023-06-19T00:45:27;8.63;;;6.93;;
72273;SDS011;60208;48.692;8.948;2023-06-19T00:47:53;10.20;;;7.65;;
72273;SDS011;60208;48.692;8.948;2023-06-19T00:50:20;8.73;;;6.90;;
72273;SDS011;60208;48.692;8.948;2023-06-19T00:52:46;8.10;;;7.30;;
72273;SDS011;60208;48.692;8.948;2023-06-19T00:55:12;8.95;;;6.93;;
72273;SDS011;60208;48.692;8.948;2023-06-19T00:57:38;8.25;;;6.97;;
72273;SDS011;60208;48.692;8.948;2023-06-19T01:00:05;7.55;;;6.85;;
72273;SDS011;60208;48.692;8.948;2023-06-19T01:02:32;8.27;;;7.43;;
72273;SDS011;60208;48.692;8.948;2023-06-19T01:04:58;8.07;;;7.20;;
72273;SDS011;60208;48.692;8.948;2023-06-19T01:07:36;7.22;;;6.35;;
72273;SDS011;60208;48.692;8.948;2023-06-19T01:10:06;5.90;;;5.15;;
72273;SDS011;60208;48.692;8.948;2023-06-19T01:12:33;7.15;;;5.35;;
72273;SDS011;60208;48.692;8.948;2023-06-19T01:15:03;7.13;;;4.90;;
72273;SDS011;60208;48.692;8.948;2023-06-19T01:17:30;7.95;;;5.07;;
72273;SDS011;60208;48.692;8.948;2023-06-19T01:19:56;5.05;;;4.55;;
72273;SDS011;60208;48.692;8.948;2023-06-19T01:22:25;11.70;;;4.78;;
72273;SDS011;60208;48.692;8.948;2023-06-19T01:24:51;5.60;;;4.40;;
72273;SDS011;60208;48.692;8.948;2023-06-19T01:27:17;5.22;;;4.72;;
72273;SDS011;60208;48.692;8.948;2023-06-19T01:29:42;27.98;;;4.47;;
72273;SDS011;60208;48.692;8.948;2023-06-19T01:32:10;8.57;;;4.40;;
72273;SDS011;60208;48.692;8.948;2023-06-19T01:34:43;5.43;;;4.05;;
72273;SDS011;60208;48.692;8.948;2023-06-19T01:37:09;6.00;;;3.80;;
72273;SDS011;60208;48.692;8.948;2023-06-19T01:39:35;4.78;;;3.80;;
72273;SDS011;60208;48.692;8.948;2023-06-19T01:42:02;4.82;;;3.80;;
72273;SDS011;60208;48.692;8.948;2023-06-19T01:44:28;5.38;;;3.92;;
72273;SDS011;60208;48.692;8.948;2023-06-19T01:46:53;11.80;;;4.03;;
72273;SDS011;60208;48.692;8.948;2023-06-19T01:49:19;5.18;;;3.92;;
72273;SDS011;60208;48.692;8.948;2023-06-19T01:51:45;5.05;;;3.55;;
72273;SDS011;60208;48.692;8.948;2023-06-19T01:54:10;4.72;;;4.32;;
72273;SDS011;60208;48.692;8.948;2023-06-19T01:56:36;4.55;;;3.88;;
72273;SDS011;60208;48.692;8.948;2023-06-19T01:59:01;4.60;;;4.10;;
72273;SDS011;60208;48.692;8.948;2023-06-19T02:01:27;4.25;;;3.85;;
72273;SDS011;60208;48.692;8.948;2023-06-19T02:03:53;4.88;;;3.88;;
72273;SDS011;60208;48.692;8.948;2023-06-19T02:06:18;4.85;;;3.90;;
72273;SDS011;60208;48.692;8.948;2023-06-19T02:08:44;4.47;;;3.60;;
72273;SDS011;60208;48.692;8.948;2023-06-19T02:11:09;3.83;;;3.42;;
72273;SDS011;60208;48.692;8.948;2023-06-19T02:13:35;4.85;;;3.60;;
72273;SDS011;60208;48.692;8.948;2023-06-19T02:16:00;3.80;;;3.50;;
72273;SDS011;60208;48.692;8.948;2023-06-19T02:18:25;3.50;;;3.20;;
72273;SDS011;60208;48.692;8.948;2023-06-19T02:20:51;5.22;;;3.40;;
72273;SDS011;60208;48.692;8.948;2023-06-19T02:23:16;3.75;;;3.42;;
72273;SDS011;60208;48.692;8.948;2023-06-19T02:25:42;3.97;;;3.60;;
72273;SDS011;60208;48.692;8.948;2023-06-19T02:28:07;4.32;;;3.40;;
72273;SDS011;60208;48.692;8.948;2023-06-19T02:30:33;3.75;;;3.45;;
72273;SDS011;60208;48.692;8.948;2023-06-19T02:32:58;4.03;;;3.40;;
72273;SDS011;60208;48.692;8.948;2023-06-19T02:35:24;3.58;;;3.28;;
72273;SDS011;60208;48.692;8.948;2023-06-19T02:37:52;4.03;;;3.42;;
72273;SDS011;60208;48.692;8.948;2023-06-19T02:40:17;3.45;;;3.15;;
72273;SDS011;60208;48.692;8.948;2023-06-19T02:42:43;3.72;;;3.40;;
72273;SDS011;60208;48.692;8.948;2023-06-19T02:45:08;3.92;;;3.17;;
72273;SDS011;60208;48.692;8.948;2023-06-19T02:47:34;3.92;;;3.53;;
72273;SDS011;60208;48.692;8.948;2023-06-19T02:50:00;4.20;;;3.50;;
72273;SDS011;60208;48.692;8.948;2023-06-19T02:52:26;3.38;;;2.92;;
72273;SDS011;60208;48.692;8.948;2023-06-19T02:54:52;4.40;;;3.25;;
72273;SDS011;60208;48.692;8.948;2023-06-19T02:57:17;3.38;;;3.03;;
72273;SDS011;60208;48.692;8.948;2023-06-19T02:59:43;3.85;;;3.13;;
72273;SDS011;60208;48.692;8.948;2023-06-19T03:02:08;5.07;;;3.47;;
72273;SDS011;60208;48.692;8.948;2023-06-19T03:04:33;4.57;;;3.30;;
72273;SDS011;60208;48.692;8.948;2023-06-19T03:06:59;4.38;;;3.22;;
72273;SDS011;60208;48.692;8.948;2023-06-19T03:09:25;4.20;;;3.33;;
72273;SDS011;60208;48.692;8.948;2023-06-19T03:11:51;3.53;;;2.95;;
72273;SDS011;60208;48.692;8.948;2023-06-19T03:14:17;3.40;;;3.10;;
72273;SDS011;60208;48.692;8.948;2023-06-19T03:16:42;8.63;;;3.60;;
72273;SDS011;60208;48.692;8.948;2023-06-19T03:19:08;4.10;;;3.10;;
72273;SDS011;60208;48.692;8.948;2023-06-19T03:21:33;3.60;;;3.30;;
72273;SDS011;60208;48.692;8.948;2023-06-19T03:24:00;4.07;;;3.55;;
72273;SDS011;60208;48.692;8.948;2023-06-19T03:26:26;4.57;;;3.40;;
72273;SDS011;60208;48.692;8.948;2023-06-19T03:28:51;4.10;;;3.60;;
72273;SDS011;60208;48.692;8.948;2023-06-19T03:31:17;3.67;;;3.30;;
72273;SDS011;60208;48.692;8.948;2023-06-19T03:33:43;4.32;;;3.92;;
72273;SDS011;60208;48.692;8.948;2023-06-19T03:36:08;4.65;;;3.28;;
72273;SDS011;60208;48.692;8.948;2023-06-19T03:38:34;4.13;;;3.13;;
72273;SDS011;60208;48.692;8.948;2023-06-19T03:41:00;7.93;;;3.70;;
72273;SDS011;60208;48.692;8.948;2023-06-19T03:43:25;4.18;;;3.78;;
72273;SDS011;60208;48.692;8.948;2023-06-19T03:45:51;4.95;;;3.95;;
72273;SDS011;60208;48.692;8.948;2023-06-19T03:48:17;8.02;;;4.07;;
72273;SDS011;60208;48.692;8.948;2023-06-19T03:50:43;7.03;;;4.45;;
72273;SDS011;60208;48.692;8.948;2023-06-19T03:53:08;6.55;;;5.00;;
72273;SDS011;60208;48.692;8.948;2023-06-19T03:55:34;6.75;;;4.60;;
72273;SDS011;60208;48.692;8.948;2023-06-19T03:57:59;5.55;;;4.15;;
72273;SDS011;60208;48.692;8.948;2023-06-19T04:00:25;8.00;;;4.97;;
72273;SDS011;60208;48.692;8.948;2023-06-19T04:02:50;4.50;;;4.10;;
72273;SDS011;60208;48.692;8.948;2023-06-19T04:05:16;4.65;;;3.95;;
72273;SDS011;60208;48.692;8.948;2023-06-19T04:07:41;4.65;;;4.05;;
72273;SDS011;60208;48.692;8.948;2023-06-19T04:10:07;4.90;;;4.40;;
72273;SDS011;60208;48.692;8.948;2023-06-19T04:12:33;5.45;;;4.00;;
72273;SDS011;60208;48.692;8.948;2023-06-19T04:14:58;6.60;;;4.80;;
72273;SDS011;60208;48.692;8.948;2023-06-19T04:17:24;6.70;;;5.10;;
72273;SDS011;60208;48.692;8.948;2023-06-19T04:19:50;6.60;;;4.72;;
72273;SDS011;60208;48.692;8.948;2023-06-19T04:22:15;6.95;;;5.13;;
72273;SDS011;60208;48.692;8.948;2023-06-19T04:24:40;6.28;;;4.60;;
72273;SDS011;60208;48.692;8.948;2023-06-19T04:27:06;6.60;;;4.40;;
72273;SDS011;60208;48.692;8.948;2023-06-19T04:29:33;5.95;;;4.70;;
72273;SDS011;60208;48.692;8.948;2023-06-19T04:31:59;5.07;;;4.57;;
72273;SDS011;60208;48.692;8.948;2023-06-19T04:34:24;6.15;;;4.60;;
72273;SDS011;60208;48.692;8.948;2023-06-19T04:36:50;6.82;;;4.85;;
72273;SDS011;60208;48.692;8.948;2023-06-19T04:39:16;6.60;;;4.53;;
72273;SDS011;60208;48.692;8.948;2023-06-19T04:41:45;5.97;;;4.60;;
72273;SDS011;60208;48.692;8.948;2023-06-19T04:44:10;4.97;;;4.28;;
72273;SDS011;60208;48.692;8.948;2023-06-19T04:46:38;7.05;;;4.28;;
72273;SDS011;60208;48.692;8.948;2023-06-19T04:49:04;6.85;;;3.80;;
72273;SDS011;60208;48.692;8.948;2023-06-19T04:51:30;4.53;;;3.72;;
72273;SDS011;60208;48.692;8.948;2023-06-19T04:53:57;5.63;;;4.05;;
72273;SDS011;60208;48.692;8.948;2023-06-19T04:56:25;4.47;;;4.07;;
72273;SDS011;60208;48.692;8.948;2023-06-19T04:58:51;4.47;;;3.85;;
72273;SDS011;60208;48.692;8.948;2023-06-19T05:01:16;7.80;;;3.70;;
72273;SDS011;60208;48.692;8.948;2023-06-19T05:03:44;6.78;;;4.03;;
72273;SDS011;60208;48.692;8.948;2023-06-19T05:06:11;6.32;;;4.30;;
72273;SDS011;60208;48.692;8.948;2023-06-19T05:08:37;6.95;;;4.10;;
72273;SDS011;60208;48.692;8.948;2023-06-19T05:11:03;4.50;;;4.00;;
72273;SDS011;60208;48.692;8.948;2023-06-19T05:13:28;5.03;;;3.78;;
72273;SDS011;60208;48.692;8.948;2023-06-19T05:15:54;6.90;;;4.00;;
72273;SDS011;60208;48.692;8.948;2023-06-19T05:18:21;6.25;;;3.75;;
72273;SDS011;60208;48.692;8.948;2023-06-19T05:20:46;4.78;;;3.50;;
72273;SDS011;60208;48.692;8.948;2023-06-19T05:23:12;4.57;;;3.80;;
72273;SDS011;60208;48.692;8.948;2023-06-19T05:25:37;5.05;;;3.45;;
72273;SDS011;60208;48.692;8.948;2023-06-19T05:28:03;3.83;;;3.38;;
72273;SDS011;60208;48.692;8.948;2023-06-19T05:30:28;5.90;;;4.03;;
72273;SDS011;60208;48.692;8.948;2023-06-19T05:32:54;5.38;;;3.50;;
72273;SDS011;60208;48.692;8.948;2023-06-19T05:35:20;8.20;;;3.28;;
72273;SDS011;60208;48.692;8.948;2023-06-19T05:37:45;6.13;;;3.80;;
72273;SDS011;60208;48.692;8.948;2023-06-19T05:40:10;8.02;;;3.65;;
72273;SDS011;60208;48.692;8.948;2023-06-19T05:42:36;4.10;;;3.35;;
72273;SDS011;60208;48.692;8.948;2023-06-19T05:45:05;4.65;;;3.17;;
72273;SDS011;60208;48.692;8.948;2023-06-19T05:47:30;7.13;;;3.40;;
72273;SDS011;60208;48.692;8.948;2023-06-19T05:49:56;5.78;;;3.35;;
72273;SDS011;60208;48.692;8.948;2023-06-19T05:52:22;5.00;;;3.30;;
72273;SDS011;60208;48.692;8.948;2023-06-19T05:54:47;6.50;;;3.10;;
72273;SDS011;60208;48.692;8.948;2023-06-19T05:57:13;10.07;;;3.53;;
72273;SDS011;60208;48.692;8.948;2023-06-19T05:59:41;4.32;;;3.38;;
72273;SDS011;60208;48.692;8.948;2023-06-19T06:02:07;4.55;;;2.85;;
72273;SDS011;60208;48.692;8.948;2023-06-19T06:04:33;4.07;;;2.90;;
72273;SDS011;60208;48.692;8.948;2023-06-19T06:06:59;3.65;;;3.35;;
72273;SDS011;60208;48.692;8.948;2023-06-19T06:09:25;4.28;;;2.65;;
72273;SDS011;60208;48.692;8.948;2023-06-19T06:11:51;3.75;;;3.10;;
72273;SDS011;60208;48.692;8.948;2023-06-19T06:14:17;7.20;;;3.00;;
72273;SDS011;60208;48.692;8.948;2023-06-19T06:16:43;3.92;;;3.30;;
72273;SDS011;60208;48.692;8.948;2023-06-19T06:19:08;6.88;;;3.00;;
72273;SDS011;60208;48.692;8.948;2023-06-19T06:21:33;5.18;;;2.80;;
72273;SDS011;60208;48.692;8.948;2023-06-19T06:23:59;6.32;;;2.92;;
72273;SDS011;60208;48.692;8.948;2023-06-19T06:26:25;3.25;;;2.95;;
72273;SDS011;60208;48.692;8.948;2023-06-19T06:28:52;6.60;;;2.95;;
72273;SDS011;60208;48.692;8.948;2023-06-19T06:31:18;4.05;;;3.28;;
72273;SDS011;60208;48.692;8.948;2023-06-19T06:33:43;3.13;;;2.83;;
72273;SDS011;60208;48.692;8.948;2023-06-19T06:36:09;4.00;;;3.00;;
72273;SDS011;60208;48.692;8.948;2023-06-19T06:38:34;3.42;;;2.75;;
72273;SDS011;60208;48.692;8.948;2023-06-19T06:41:00;3.33;;;2.72;;
72273;SDS011;60208;48.692;8.948;2023-06-19T06:43:25;3.95;;;2.72;;
72273;SDS011;60208;48.692;8.948;2023-06-19T06:45:51;3.00;;;2.78;;
72273;SDS011;60208;48.692;8.948;2023-06-19T06:48:16;4.30;;;2.63;;
72273;SDS011;60208;48.692;8.948;2023-06-19T06:50:42;5.85;;;2.97;;
72273;SDS011;60208;48.692;8.948;2023-06-19T06:53:08;3.05;;;2.78;;
72273;SDS011;60208;48.692;8.948;2023-06-19T06:55:33;2.70;;;2.47;;
72273;SDS011;60208;48.692;8.948;2023-06-19T06:57:59;3.70;;;2.97;;
72273;SDS011;60208;48.692;8.948;2023-06-19T07:00:25;4.78;;;2.63;;
72273;SDS011;60208;48.692;8.948;2023-06-19T07:02:50;7.57;;;2.85;;
72273;SDS011;60208;48.692;8.948;2023-06-19T07:05:16;3.10;;;2.80;;
72273;SDS011;60208;48.692;8.948;2023-06-19T07:07:41;5.10;;;3.10;;
72273;SDS011;60208;48.692;8.948;2023-06-19T07:10:07;4.05;;;2.88;;
72273;SDS011;60208;48.692;8.948;2023-06-19T07:12:33;3.22;;;2.92;;
72273;SDS011;60208;48.692;8.948;2023-06-19T07:14:59;4.88;;;2.90;;
72273;SDS011;60208;48.692;8.948;2023-06-19T07:17:24;3.15;;;2.85;;
72273;SDS011;60208;48.692;8.948;2023-06-19T07:19:50;3.72;;;2.88;;
72273;SDS011;60208;48.692;8.948;2023-06-19T07:22:15;4.53;;;3.30;;
72273;SDS011;60208;48.692;8.948;2023-06-19T07:24:41;5.35;;;2.90;;
72273;SDS011;60208;48.692;8.948;2023-06-19T07:27:06;3.40;;;3.10;;
72273;SDS011;60208;48.692;8.948;2023-06-19T07:29:32;3.63;;;3.10;;
72273;SDS011;60208;48.692;8.948;2023-06-19T07:31:58;3.20;;;2.90;;
72273;SDS011;60208;48.692;8.948;2023-06-19T07:34:23;3.28;;;2.97;;
72273;SDS011;60208;48.692;8.948;2023-06-19T07:36:49;4.38;;;2.80;;
72273;SDS011;60208;48.692;8.948;2023-06-19T07:39:15;3.10;;;2.80;;
72273;SDS011;60208;48.692;8.948;2023-06-19T07:41:40;6.70;;;3.10;;
72273;SDS011;60208;48.692;8.948;2023-06-19T07:44:06;5.30;;;2.90;;
72273;SDS011;60208;48.692;8.948;2023-06-19T07:46:31;3.90;;;3.08;;
72273;SDS011;60208;48.692;8.948;2023-06-19T07:48:57;4.97;;;3.53;;
72273;SDS011;60208;48.692;8.948;2023-06-19T07:51:22;6.03;;;3.50;;
72273;SDS011;60208;48.692;8.948;2023-06-19T07:53:47;4.40;;;3.45;;
72273;SDS011;60208;48.692;8.948;2023-06-19T07:56:13;6.93;;;4.05;;
72273;SDS011;60208;48.692;8.948;2023-06-19T07:58:38;5.63;;;3.58;;
72273;SDS011;60208;48.692;8.948;2023-06-19T08:01:04;7.85;;;3.55;;
72273;SDS011;60208;48.692;8.948;2023-06-19T08:03:29;3.80;;;3.50;;
72273;SDS011;60208;48.692;8.948;2023-06-19T08:05:55;3.50;;;3.20;;
72273;SDS011;60208;48.692;8.948;2023-06-19T08:08:21;3.70;;;3.40;;
72273;SDS011;60208;48.692;8.948;2023-06-19T08:10:47;7.70;;;3.45;;
72273;SDS011;60208;48.692;8.948;2023-06-19T08:13:12;6.40;;;3.35;;
72273;SDS011;60208;48.692;8.948;2023-06-19T08:15:38;3.75;;;3.00;;
72273;SDS011;60208;48.692;8.948;2023-06-19T08:18:03;4.97;;;3.33;;
72273;SDS011;60208;48.692;8.948;2023-06-19T08:20:29;4.00;;;3.38;;
72273;SDS011;60208;48.692;8.948;2023-06-19T08:22:54;3.88;;;3.00;;
72273;SDS011;60208;48.692;8.948;2023-06-19T08:25:21;4.63;;;3.08;;
72273;SDS011;60208;48.692;8.948;2023-06-19T08:27:46;3.38;;;3.05;;
72273;SDS011;60208;48.692;8.948;2023-06-19T08:30:12;4.20;;;2.75;;
72273;SDS011;60208;48.692;8.948;2023-06-19T08:32:37;3.22;;;2.90;;
72273;SDS011;60208;48.692;8.948;2023-06-19T08:35:03;3.10;;;2.80;;
72273;SDS011;60208;48.692;8.948;2023-06-19T08:37:31;5.22;;;2.55;;
72273;SDS011;60208;48.692;8.948;2023-06-19T08:39:57;3.58;;;2.70;;
72273;SDS011;60208;48.692;8.948;2023-06-19T08:42:22;3.55;;;2.70;;
72273;SDS011;60208;48.692;8.948;2023-06-19T08:44:48;2.80;;;2.60;;
72273;SDS011;60208;48.692;8.948;2023-06-19T08:47:13;2.83;;;2.58;;
72273;SDS011;60208;48.692;8.948;2023-06-19T08:49:39;2.90;;;2.70;;
72273;SDS011;60208;48.692;8.948;2023-06-19T08:52:05;2.95;;;2.63;;
72273;SDS011;60208;48.692;8.948;2023-06-19T08:54:32;3.78;;;2.85;;
72273;SDS011;60208;48.692;8.948;2023-06-19T08:57:00;4.97;;;2.53;;
72273;SDS011;60208;48.692;8.948;2023-06-19T08:59:26;3.47;;;2.50;;
72273;SDS011;60208;48.692;8.948;2023-06-19T09:01:54;3.03;;;2.28;;
72273;SDS011;60208;48.692;8.948;2023-06-19T09:04:21;4.40;;;2.22;;
72273;SDS011;60208;48.692;8.948;2023-06-19T09:06:56;4.35;;;2.28;;
72273;SDS011;60208;48.692;8.948;2023-06-19T09:09:25;2.85;;;2.20;;
72273;SDS011;60208;48.692;8.948;2023-06-19T09:12:04;2.40;;;2.20;;
72273;SDS011;60208;48.692;8.948;2023-06-19T09:17:10;2.53;;;1.60;;
72273;SDS011;60208;48.692;8.948;2023-06-19T09:19:38;2.08;;;1.65;;
72273;SDS011;60208;48.692;8.948;2023-06-19T09:22:08;1.80;;;1.70;;
72273;SDS011;60208;48.692;8.948;2023-06-19T09:24:38;3.53;;;2.05;;
72273;SDS011;60208;48.692;8.948;2023-06-19T09:29:35;2.75;;;2.47;;
72273;SDS011;60208;48.692;8.948;2023-06-19T09:32:13;2.67;;;2.47;;
72273;SDS011;60208;48.692;8.948;2023-06-19T09:34:41;2.58;;;2.38;;
72273;SDS011;60208;48.692;8.948;2023-06-19T09:37:07;2.15;;;2.05;;
72273;SDS011;60208;48.692;8.948;2023-06-19T09:39:33;2.50;;;2.30;;
72273;SDS011;60208;48.692;8.948;2023-06-19T09:41:59;2.45;;;2.25;;
72273;SDS011;60208;48.692;8.948;2023-06-19T09:44:28;2.28;;;2.08;;
72273;SDS011;60208;48.692;8.948;2023-06-19T09:47:00;3.35;;;2.40;;
72273;SDS011;60208;48.692;8.948;2023-06-19T09:49:28;2.95;;;2.17;;
72273;SDS011;60208;48.692;8.948;2023-06-19T09:51:57;2.67;;;2.00;;
72273;SDS011;60208;48.692;8.948;2023-06-19T09:54:23;2.85;;;2.30;;
72273;SDS011;60208;48.692;8.948;2023-06-19T09:56:49;4.68;;;2.00;;
72273;SDS011;60208;48.692;8.948;2023-06-19T09:59:16;5.47;;;2.40;;
72273;SDS011;60208;48.692;8.948;2023-06-19T10:01:43;5.25;;;2.30;;
72273;SDS011;60208;48.692;8.948;2023-06-19T10:04:10;3.97;;;2.13;;
72273;SDS011;60208;48.692;8.948;2023-06-19T10:06:45;2.60;;;2.35;;
72273;SDS011;60208;48.692;8.948;2023-06-19T10:09:11;3.58;;;2.30;;
72273;SDS011;60208;48.692;8.948;2023-06-19T10:14:12;3.33;;;2.42;;
72273;SDS011;60208;48.692;8.948;2023-06-19T10:16:38;1.90;;;1.80;;
72273;SDS011;60208;48.692;8.948;2023-06-19T10:19:13;4.05;;;2.10;;
72273;SDS011;60208;48.692;8.948;2023-06-19T10:21:47;2.03;;;1.92;;
72273;SDS011;60208;48.692;8.948;2023-06-19T10:24:18;2.35;;;2.15;;
72273;SDS011;60208;48.692;8.948;2023-06-19T10:26:58;2.20;;;2.00;;
72273;SDS011;60208;48.692;8.948;2023-06-19T10:29:37;2.20;;;1.73;;
72273;SDS011;60208;48.692;8.948;2023-06-19T10:32:04;3.05;;;2.05;;
72273;SDS011;60208;48.692;8.948;2023-06-19T10:34:33;2.85;;;1.88;;
72273;SDS011;60208;48.692;8.948;2023-06-19T10:36:59;4.28;;;2.08;;
72273;SDS011;60208;48.692;8.948;2023-06-19T10:39:25;2.25;;;1.98;;
72273;SDS011;60208;48.692;8.948;2023-06-19T10:41:51;3.60;;;2.00;;
72273;SDS011;60208;48.692;8.948;2023-06-19T10:44:16;2.05;;;1.90;;
72273;SDS011;60208;48.692;8.948;2023-06-19T10:46:42;3.05;;;2.10;;
72273;SDS011;60208;48.692;8.948;2023-06-19T10:49:08;2.40;;;1.98;;
72273;SDS011;60208;48.692;8.948;2023-06-19T10:51:38;2.35;;;2.20;;
72273;SDS011;60208;48.692;8.948;2023-06-19T10:54:05;2.55;;;2.35;;
72273;SDS011;60208;48.692;8.948;2023-06-19T10:56:31;2.10;;;2.00;;
72273;SDS011;60208;48.692;8.948;2023-06-19T10:59:00;2.67;;;2.05;;
72273;SDS011;60208;48.692;8.948;2023-06-19T11:01:34;3.65;;;2.30;;
72273;SDS011;60208;48.692;8.948;2023-06-19T11:04:04;5.63;;;2.10;;
72273;SDS011;60208;48.692;8.948;2023-06-19T11:06:31;2.35;;;2.17;;
72273;SDS011;60208;48.692;8.948;2023-06-19T11:08:57;4.22;;;2.33;;
72273;SDS011;60208;48.692;8.948;2023-06-19T11:11:34;2.30;;;2.10;;
72273;SDS011;60208;48.692;8.948;2023-06-19T11:14:07;2.38;;;2.20;;
72273;SDS011;60208;48.692;8.948;2023-06-19T11:16:40;3.10;;;2.33;;
72273;SDS011;60208;48.692;8.948;2023-06-19T11:19:07;3.03;;;2.10;;
72273;SDS011;60208;48.692;8.948;2023-06-19T11:21:35;3.20;;;2.20;;
72273;SDS011;60208;48.692;8.948;2023-06-19T11:24:04;2.55;;;2.35;;
72273;SDS011;60208;48.692;8.948;2023-06-19T11:26:34;2.00;;;1.90;;
72273;SDS011;60208;48.692;8.948;2023-06-19T11:29:12;2.58;;;2.38;;
72273;SDS011;60208;48.692;8.948;2023-06-19T11:31:38;5.10;;;2.67;;
72273;SDS011;60208;48.692;8.948;2023-06-19T11:34:04;6.70;;;2.40;;
72273;SDS011;60208;48.692;8.948;2023-06-19T11:36:30;2.50;;;2.30;;
72273;SDS011;60208;48.692;8.948;2023-06-19T11:38:55;3.13;;;2.40;;
72273;SDS011;60208;48.692;8.948;2023-06-19T11:41:27;2.67;;;2.38;;
72273;SDS011;60208;48.692;8.948;2023-06-19T11:44:00;2.67;;;2.20;;
72273;SDS011;60208;48.692;8.948;2023-06-19T11:46:30;2.53;;;2.05;;
72273;SDS011;60208;48.692;8.948;2023-06-19T11:49:06;3.60;;;2.00;;
72273;SDS011;60208;48.692;8.948;2023-06-19T11:51:45;2.20;;;2.00;;
72273;SDS011;60208;48.692;8.948;2023-06-19T11:54:11;3.38;;;1.92;;
72273;SDS011;60208;48.692;8.948;2023-06-19T11:56:40;3.28;;;2.10;;
72273;SDS011;60208;48.692;8.948;2023-06-19T11:59:06;3.35;;;1.65;;
72273;SDS011;60208;48.692;8.948;2023-06-19T12:01:32;2.05;;;1.85;;
72273;SDS011;60208;48.692;8.948;2023-06-19T12:03:59;3.15;;;2.10;;
72273;SDS011;60208;48.692;8.948;2023-06-19T12:06:28;2.75;;;1.73;;
72273;SDS011;60208;48.692;8.948;2023-06-19T12:08:54;2.10;;;1.80;;
72273;SDS011;60208;48.692;8.948;2023-06-19T12:11:19;1.70;;;1.60;;
72273;SDS011;60208;48.692;8.948;2023-06-19T12:13:45;1.80;;;1.70;;
72273;SDS011;60208;48.692;8.948;2023-06-19T12:16:10;2.15;;;1.73;;
72273;SDS011;60208;48.692;8.948;2023-06-19T12:18:36;1.92;;;1.83;;
72273;SDS011;60208;48.692;8.948;2023-06-19T12:21:02;2.65;;;1.83;;
72273;SDS011;60208;48.692;8.948;2023-06-19T12:23:27;2.00;;;1.90;;
72273;SDS011;60208;48.692;8.948;2023-06-19T12:25:53;2.45;;;2.10;;
72273;SDS011;60208;48.692;8.948;2023-06-19T12:28:19;4.03;;;2.10;;
72273;SDS011;60208;48.692;8.948;2023-06-19T12:30:46;3.85;;;2.30;;
72273;SDS011;60208;48.692;8.948;2023-06-19T12:33:14;2.50;;;2.00;;
72273;SDS011;60208;48.692;8.948;2023-06-19T12:35:39;5.73;;;2.13;;
72273;SDS011;60208;48.692;8.948;2023-06-19T12:38:06;2.25;;;2.15;;
72273;SDS011;60208;48.692;8.948;2023-06-19T12:40:32;2.20;;;2.10;;
72273;SDS011;60208;48.692;8.948;2023-06-19T12:42:58;2.38;;;2.17;;
72273;SDS011;60208;48.692;8.948;2023-06-19T12:45:23;2.25;;;2.08;;
72273;SDS011;60208;48.692;8.948;2023-06-19T12:47:49;2.30;;;2.10;;
72273;SDS011;60208;48.692;8.948;2023-06-19T12:50:14;2.93;;;2.67;;
72273;SDS011;60208;48.692;8.948;2023-06-19T12:52:39;2.00;;;1.90;;
72273;SDS011;60208;48.692;8.948;2023-06-19T12:55:05;3.80;;;2.20;;
72273;SDS011;60208;48.692;8.948;2023-06-19T12:57:31;5.35;;;2.25;;
72273;SDS011;60208;48.692;8.948;2023-06-19T12:59:56;3.50;;;2.40;;
72273;SDS011;60208;48.692;8.948;2023-06-19T13:02:21;4.53;;;2.17;;
72273;SDS011;60208;48.692;8.948;2023-06-19T13:04:47;2.60;;;1.98;;
72273;SDS011;60208;48.692;8.948;2023-06-19T13:07:12;1.83;;;1.70;;
72273;SDS011;60208;48.692;8.948;2023-06-19T13:09:38;2.75;;;1.90;;
72273;SDS011;60208;48.692;8.948;2023-06-19T13:12:04;2.88;;;1.95;;
72273;SDS011;60208;48.692;8.948;2023-06-19T13:14:29;2.33;;;1.80;;
72273;SDS011;60208;48.692;8.948;2023-06-19T13:16:57;1.92;;;1.80;;
72273;SDS011;60208;48.692;8.948;2023-06-19T13:19:22;3.30;;;2.03;;
72273;SDS011;60208;48.692;8.948;2023-06-19T13:21:48;3.78;;;2.05;;
72273;SDS011;60208;48.692;8.948;2023-06-19T13:24:13;2.08;;;1.88;;
72273;SDS011;60208;48.692;8.948;2023-06-19T13:26:39;3.25;;;2.10;;
72273;SDS011;60208;48.692;8.948;2023-06-19T13:29:05;3.35;;;1.80;;
72273;SDS011;60208;48.692;8.948;2023-06-19T13:31:30;3.22;;;2.42;;
72273;SDS011;60208;48.692;8.948;2023-06-19T13:33:56;2.42;;;2.22;;
72273;SDS011;60208;48.692;8.948;2023-06-19T13:36:22;3.05;;;2.65;;
72273;SDS011;60208;48.692;8.948;2023-06-19T13:38:48;3.47;;;2.33;;
72273;SDS011;60208;48.692;8.948;2023-06-19T13:41:14;2.42;;;1.85;;
72273;SDS011;60208;48.692;8.948;2023-06-19T13:43:39;2.58;;;2.38;;
72273;SDS011;60208;48.692;8.948;2023-06-19T13:46:05;2.38;;;2.17;;
72273;SDS011;60208;48.692;8.948;2023-06-19T13:48:31;2.33;;;2.13;;
72273;SDS011;60208;48.692;8.948;2023-06-19T13:50:57;5.03;;;2.17;;
72273;SDS011;60208;48.692;8.948;2023-06-19T13:53:24;1.95;;;1.85;;
72273;SDS011;60208;48.692;8.948;2023-06-19T13:55:50;2.90;;;2.15;;
72273;SDS011;60208;48.692;8.948;2023-06-19T13:58:15;2.85;;;2.15;;
72273;SDS011;60208;48.692;8.948;2023-06-19T14:00:40;2.15;;;1.90;;
72273;SDS011;60208;48.692;8.948;2023-06-19T14:03:06;3.58;;;2.13;;
72273;SDS011;60208;48.692;8.948;2023-06-19T14:05:32;3.10;;;2.00;;
72273;SDS011;60208;48.692;8.948;2023-06-19T14:07:58;2.47;;;2.20;;
72273;SDS011;60208;48.692;8.948;2023-06-19T14:10:24;2.92;;;2.40;;
72273;SDS011;60208;48.692;8.948;2023-06-19T14:12:50;2.35;;;1.92;;
72273;SDS011;60208;48.692;8.948;2023-06-19T14:15:15;2.33;;;2.13;;
72273;SDS011;60208;48.692;8.948;2023-06-19T14:17:41;3.30;;;2.50;;
72273;SDS011;60208;48.692;8.948;2023-06-19T14:20:07;2.53;;;2.17;;
72273;SDS011;60208;48.692;8.948;2023-06-19T14:22:34;2.50;;;2.30;;
72273;SDS011;60208;48.692;8.948;2023-06-19T14:24:59;3.30;;;1.98;;
72273;SDS011;60208;48.692;8.948;2023-06-19T14:27:26;2.42;;;2.22;;
72273;SDS011;60208;48.692;8.948;2023-06-19T14:29:53;2.33;;;2.13;;
72273;SDS011;60208;48.692;8.948;2023-06-19T14:32:19;3.25;;;2.10;;
72273;SDS011;60208;48.692;8.948;2023-06-19T14:34:45;2.90;;;2.22;;
72273;SDS011;60208;48.692;8.948;2023-06-19T14:37:11;2.85;;;1.92;;
72273;SDS011;60208;48.692;8.948;2023-06-19T14:39:36;2.70;;;2.40;;
72273;SDS011;60208;48.692;8.948;2023-06-19T14:42:02;2.45;;;2.25;;
72273;SDS011;60208;48.692;8.948;2023-06-19T14:44:27;4.63;;;2.15;;
72273;SDS011;60208;48.692;8.948;2023-06-19T14:46:53;2.20;;;2.10;;
72273;SDS011;60208;48.692;8.948;2023-06-19T14:49:18;3.08;;;2.40;;
72273;SDS011;60208;48.692;8.948;2023-06-19T14:51:44;2.20;;;2.00;;